Paterson, NJ (07544)

3:18 PM EST on December 07, 2016 (GMT -0500)
Hawthorne, NJ | | Change Station

Elev 52 ft 40.94 °N, 74.15 °W | Updated 11 seconds ago

Mostly Cloudy
Mostly Cloudy
46.0 °F
Feels Like 46 °F
N
0.0
Wind Variable Wind from NE
Gusts 0.0 mph

Today
High -- | Low -- °F
--% Chance of Precip.
Yesterday
High -- | Low -- °F
Precip. -- in
Pressure 29.99 in
Visibility 10.0 miles
Clouds Mostly Cloudy 2600 ft
Mostly Cloudy 3200 ft
Windchill 46 °F
Dew Point 40 °F
Humidity 79%
Rainfall 0.05 in
Snow Depth Not available.
7:08 AM 4:28 PM
First Quarter, 55% visible
SPECI KCDW 072013Z AUTO VRB03KT 10SM BKN026 BKN032 08/02 A2999 RMK AO2 T00830022 TSNO
Pressure 29.99 in
Visibility 10.0 miles
Clouds Mostly Cloudy 2600 ft
Mostly Cloudy 3200 ft
Windchill 46 °F
Dew Point 40 °F
Humidity 79%
Rainfall 0.05 in
Snow Depth Not available.
7:08 AM 4:28 PM
First Quarter, 55% visible
SPECI KCDW 072013Z AUTO VRB03KT 10SM BKN026 BKN032 08/02 A2999 RMK AO2 T00830022 TSNO

10-Day Weather Forecast

Almanac

Astronomy

Dec. 07, 2016 Rise Set
Actual Time
Civil Twilight
Nautical Twilight
Astronomical Twilight
Moon
Length of Visible Light
Length of Day
Tomorrow will be .
, % of the Moon is Illuminated

Today's Extremes

State Highs State Lows

Community

WunderPhotos

Upload Photos

1,956,164 photos uploaded!

WunderBlog® & News

Nearby

Air Quality

  Air Quality AQ Index Pollutant
Not available.

Snow Depth

Station Depth Elevation

Earthquake Activity

City Distance Mag. Time & Date
Minimum magnitude displayed is 2.5.

Coastal Water Temperatures

Place Temperature

Stations

Nearby Weather Stations

Station Location Temp. Windchill Dew Point Humidity Wind Precip. Elev Updated Type
                   

Watches & Warnings

There are currently no watches in effect.